Time;durP1;ratioP1;P1;durP2;ratioP2;P2;SDS_P1;SDS_P2;PMS_P1;PMS_P2;Temp;Humidity;BMP_temperature;BMP_pressure;BME280_temperature;BME280_humidity;BME280_pressure;Samples;Min_cycle;Max_cycle;Signal;HPM_P1;HPM_P2
2022/12/19 00:01:21;;;;;;;74.38;48.38;;;;;;;0.34;100.00;101755.56;5031484;28;20044;-73
2022/12/19 00:03:53;;;;;;;78.60;49.50;;;;;;;0.35;100.00;101747.78;5014013;28;20030;-76
2022/12/19 00:06:22;;;;;;;81.05;50.28;;;;;;;0.38;100.00;101727.00;5023791;28;20125;-73
2022/12/19 00:08:51;;;;;;;78.93;49.28;;;;;;;0.38;100.00;101739.94;5032729;28;20041;-76
2022/12/19 00:11:21;;;;;;;77.68;49.35;;;;;;;0.41;100.00;101729.56;5012314;28;20443;-73
2022/12/19 00:13:47;;;;;;;77.78;49.67;;;;;;;0.42;100.00;101731.28;5014597;28;20025;-74
2022/12/19 00:16:15;;;;;;;76.43;50.72;;;;;;;0.42;100.00;101731.28;5012468;28;20489;-73
2022/12/19 00:18:43;;;;;;;78.95;49.65;;;;;;;0.44;100.00;101732.09;5029158;28;20098;-75
2022/12/19 00:21:11;;;;;;;80.65;50.35;;;;;;;0.47;100.00;101721.69;5012838;28;20839;-74
2022/12/19 00:23:37;;;;;;;78.65;49.75;;;;;;;0.49;100.00;101719.94;5014311;28;20037;-75
2022/12/19 00:26:18;;;;;;;71.88;48.42;;;;;;;0.54;100.00;101717.25;5029188;28;20093;-75
2022/12/19 00:28:46;;;;;;;78.57;50.17;;;;;;;0.55;100.00;101711.19;5013691;28;20508;-74
2022/12/19 00:31:14;;;;;;;74.13;48.05;;;;;;;0.55;100.00;101706.00;5030782;28;20123;-74
2022/12/19 00:33:40;;;;;;;75.53;49.65;;;;;;;0.58;100.00;101705.94;5031001;28;20021;-74
2022/12/19 00:36:09;;;;;;;82.40;50.53;;;;;;;0.61;100.00;101705.88;5030786;28;20014;-74
2022/12/19 00:38:35;;;;;;;74.53;47.67;;;;;;;0.61;100.00;101696.38;5029622;28;20057;-75
2022/12/19 00:41:11;;;;;;;77.55;48.88;;;;;;;0.66;100.00;101692.84;5028802;28;20112;-75
2022/12/19 00:43:38;;;;;;;76.80;47.15;;;;;;;0.68;100.00;101691.09;5031434;28;20432;-75
2022/12/19 00:46:04;;;;;;;72.88;46.97;;;;;;;0.71;100.00;101696.19;5027980;28;20111;-74
2022/12/19 00:48:31;;;;;;;72.35;46.20;;;;;;;0.74;100.00;101685.78;5031688;28;20037;-75
2022/12/19 00:51:04;;;;;;;72.30;46.38;;;;;;;0.74;100.00;101697.00;5030926;28;20036;-75
2022/12/19 00:53:29;;;;;;;75.03;47.67;;;;;;;0.78;100.00;101683.09;5022141;28;20036;-75
2022/12/19 00:55:55;;;;;;;72.72;48.10;;;;;;;0.80;100.00;101680.47;4997913;28;20025;-74
2022/12/19 00:58:21;;;;;;;71.50;46.50;;;;;;;0.82;100.00;101671.81;5030775;28;20500;-75
2022/12/19 01:00:46;;;;;;;69.90;45.80;;;;;;;0.87;100.00;101656.19;5030754;28;20033;-75
2022/12/19 01:03:11;;;;;;;72.13;46.35;;;;;;;0.87;100.00;101663.94;5009927;28;20022;-75
2022/12/19 01:05:37;;;;;;;66.80;45.15;;;;;;;0.89;100.00;101673.38;5024780;28;20026;-75
2022/12/19 01:08:06;;;;;;;68.43;45.13;;;;;;;0.91;100.00;101676.81;5031229;28;20025;-75
2022/12/19 01:10:32;;;;;;;68.43;45.20;;;;;;;0.92;100.00;101675.91;5029505;28;20031;-75
2022/12/19 01:12:57;;;;;;;68.03;44.47;;;;;;;0.96;100.00;101673.25;5031829;28;20041;-75
2022/12/19 01:15:22;;;;;;;68.63;44.65;;;;;;;0.99;100.00;101673.19;5030068;28;20037;-75
2022/12/19 01:17:48;;;;;;;67.65;44.20;;;;;;;1.01;100.00;101659.31;5031582;28;20549;-75
2022/12/19 01:20:22;;;;;;;69.10;43.75;;;;;;;0.99;100.00;101655.91;5031554;28;20025;-75
2022/12/19 01:22:47;;;;;;;69.28;44.75;;;;;;;1.02;100.00;101655.00;5030227;28;20021;-75
2022/12/19 01:25:14;;;;;;;66.38;43.75;;;;;;;1.03;100.00;101652.38;5029534;28;20065;-75
2022/12/19 01:27:39;;;;;;;70.07;43.50;;;;;;;1.04;100.00;101637.66;5029731;28;20105;-75
2022/12/19 01:30:06;;;;;;;68.07;43.22;;;;;;;1.06;100.00;101641.94;5029020;28;20124;-75
2022/12/19 01:32:35;;;;;;;64.72;43.03;;;;;;;1.07;100.00;101643.63;5012445;28;20033;-75
2022/12/19 01:35:00;;;;;;;63.58;43.13;;;;;;;1.07;100.00;101637.59;5029621;28;20525;-75
2022/12/19 01:37:26;;;;;;;64.90;43.10;;;;;;;1.11;100.00;101639.22;5011121;28;20104;-76
2022/12/19 01:39:52;;;;;;;65.20;42.63;;;;;;;1.13;100.00;101638.31;5029743;28;20022;-76
2022/12/19 01:42:20;;;;;;;67.43;43.35;;;;;;;1.13;100.00;101648.69;5030148;28;20037;-76
2022/12/19 01:45:08;;;;;;;64.63;42.65;;;;;;;1.17;100.00;101649.47;5022753;28;20425;-81
2022/12/19 01:47:50;;;;;;;62.63;42.45;;;;;;;1.19;100.00;101640.75;5017557;28;20101;-76
2022/12/19 01:50:28;;;;;;;61.38;42.00;;;;;;;1.20;100.00;101644.22;5028819;28;20420;-76
2022/12/19 01:52:54;;;;;;;65.50;42.40;;;;;;;1.20;100.00;101639.03;5029147;28;20033;-75
2022/12/19 01:55:20;;;;;;;62.95;42.03;;;;;;;1.22;100.00;101643.31;5029890;28;20027;-75
2022/12/19 01:57:46;;;;;;;67.57;43.80;;;;;;;1.23;100.00;101633.81;5011629;28;20108;-75
2022/12/19 02:00:12;;;;;;;65.53;42.95;;;;;;;1.24;100.00;101633.75;5029327;28;20060;-76
2022/12/19 02:03:10;;;;;;;64.88;43.50;;;;;;;1.27;100.00;101631.97;5020546;28;20450;-76
2022/12/19 02:05:38;;;;;;;64.97;43.38;;;;;;;1.24;100.00;101631.16;5008249;28;20038;-75
2022/12/19 02:08:04;;;;;;;66.25;43.10;;;;;;;1.27;100.00;101619.03;5019817;28;20083;-76
2022/12/19 02:10:29;;;;;;;69.78;44.67;;;;;;;1.29;100.00;101612.06;5029517;28;20029;-76
2022/12/19 02:12:55;;;;;;;76.22;45.28;;;;;;;1.30;100.00;101608.59;5029698;28;20075;-76
2022/12/19 02:15:21;;;;;;;70.13;44.60;;;;;;;1.30;100.00;101604.25;5029939;28;20045;-76
2022/12/19 02:18:07;;;;;;;69.88;44.75;;;;;;;1.30;100.00;101599.06;5020267;28;20029;-76
2022/12/19 02:20:53;;;;;;;71.25;44.33;;;;;;;1.33;100.00;101600.72;5010898;28;20026;-75
2022/12/19 02:23:53;;;;;;;76.38;44.92;;;;;;;1.33;100.00;101591.22;5014667;28;20032;-76
2022/12/19 02:26:33;;;;;;;74.57;46.58;;;;;;;1.36;100.00;101582.50;5029132;28;20095;-76
2022/12/19 02:29:11;;;;;;;72.38;45.55;;;;;;;1.39;100.00;101580.69;5013075;28;20025;-76
2022/12/19 02:32:05;;;;;;;70.22;45.75;;;;;;;1.40;100.00;101579.81;5011414;28;20041;-76
2022/12/19 02:34:53;;;;;;;77.15;44.95;;;;;;;1.43;100.00;101574.53;5003893;28;20033;-80
2022/12/19 02:37:40;;;;;;;76.20;44.78;;;;;;;1.47;100.00;101575.31;5030586;28;20477;-76
2022/12/19 02:40:23;;;;;;;72.40;44.72;;;;;;;1.49;100.00;101578.72;5009916;28;20103;-75
2022/12/19 02:42:52;;;;;;;;;;;;;;;1.54;100.00;101571.69;5005925;28;20029;-75
2022/12/19 02:45:20;;;;;;;74.10;44.80;;;;;;;1.57;100.00;101564.66;5029252;28;19913;-75
2022/12/19 02:47:45;;;;;;;77.20;45.70;;;;;;;1.63;100.00;101555.91;5029655;28;20021;-75
2022/12/19 02:50:11;;;;;;;77.90;46.72;;;;;;;1.68;100.00;101559.22;5028019;28;20036;-74
2022/12/19 02:52:37;;;;;;;75.22;45.60;;;;;;;1.72;100.00;101550.47;5009685;28;20030;-73
2022/12/19 02:55:11;;;;;;;72.97;44.80;;;;;;;1.81;100.00;101539.84;5010851;28;20044;-74
2022/12/19 02:58:21;;;;;;;75.68;44.75;;;;;;;1.85;100.00;101540.63;5029228;28;20025;-76
2022/12/19 03:01:07;;;;;;;76.72;45.95;;;;;;;1.92;100.00;101536.09;5012269;28;20083;-74
2022/12/19 03:03:45;;;;;;;77.22;44.60;;;;;;;1.95;100.00;101541.22;5009613;28;20084;-74
2022/12/19 03:06:30;;;;;;;74.32;43.33;;;;;;;2.00;100.00;101536.75;5023257;28;20113;-75
2022/12/19 03:09:07;;;;;;;71.47;44.00;;;;;;;2.04;100.00;101541.84;5030760;28;20030;-77
2022/12/19 03:11:38;;;;;;;79.00;44.33;;;;;;;2.10;100.00;101540.81;5032292;28;20026;-74
2022/12/19 03:14:14;;;;;;;78.45;45.72;;;;;;;2.14;100.00;101542.44;5032148;28;20033;-74
2022/12/19 03:16:41;;;;;;;75.78;43.60;;;;;;;2.17;100.00;101548.38;5032780;28;20021;-74
2022/12/19 03:19:09;;;;;;;75.60;42.80;;;;;;;2.22;100.00;101543.06;5032625;28;20025;-79
2022/12/19 03:21:37;;;;;;;75.97;42.10;;;;;;;2.29;100.00;101536.78;5031143;28;20030;-75
2022/12/19 03:24:06;;;;;;;74.40;41.88;;;;;;;2.34;100.00;101529.72;5032864;28;20029;-80
2022/12/19 03:26:49;;;;;;;72.00;41.97;;;;;;;2.42;100.00;101527.78;5019201;28;20079;-75
2022/12/19 03:29:45;;;;;;;70.03;40.25;;;;;;;2.49;100.00;101534.47;5012182;28;20101;-75
2022/12/19 03:32:15;;;;;;;68.55;39.30;;;;;;;2.59;100.00;101529.00;5033443;28;20064;-75
2022/12/19 03:34:50;;;;;;;65.30;39.70;;;;;;;2.70;100.00;101526.94;5015648;28;20042;-74
2022/12/19 03:37:21;;;;;;;69.20;39.90;;;;;;;2.72;100.00;101522.53;5014852;28;20029;-74
2022/12/19 03:39:55;;;;;;;68.47;37.95;;;;;;;2.83;100.00;101525.69;5033428;28;20367;-74
2022/12/19 03:45:10;;;;;;;68.65;35.92;;;;;;;2.99;100.00;101518.25;5015107;28;20041;-75
2022/12/19 03:47:50;;;;;;;63.38;35.75;;;;;;;3.11;100.00;101518.69;5027644;28;20089;-74
2022/12/19 03:50:15;;;;;;;58.63;34.90;;;;;;;3.23;100.00;101508.81;5031923;28;20128;-75
2022/12/19 03:52:51;;;;;;;62.95;35.95;;;;;;;3.31;100.00;101512.84;5033508;28;20096;-74
2022/12/19 03:55:19;;;;;;;58.35;35.35;;;;;;;3.39;100.00;101502.19;5033342;28;20018;-74
2022/12/19 03:57:53;;;;;;;61.22;34.58;;;;;;;3.47;100.00;101511.44;5032490;28;20026;-74
2022/12/19 04:00:23;;;;;;;57.03;33.05;;;;;;;3.51;100.00;101519.97;5031128;28;20099;-77
2022/12/19 04:02:51;;;;;;;55.78;33.85;;;;;;;3.56;100.00;101510.25;5030002;28;20021;-76
2022/12/19 04:05:22;;;;;;;56.22;32.53;;;;;;;3.60;100.00;101514.47;5032112;28;20017;-75
2022/12/19 04:07:51;;;;;;;59.20;33.50;;;;;;;3.61;100.00;101503.16;5032996;28;20346;-75
2022/12/19 04:10:22;;;;;;;58.70;33.17;;;;;;;3.68;100.00;101504.66;5031728;28;20025;-76
2022/12/19 04:12:52;;;;;;;53.30;32.45;;;;;;;3.72;100.00;101516.66;5032374;28;20109;-76
2022/12/19 04:15:43;;;;;;;58.58;32.80;;;;;;;3.73;100.00;101504.50;5031863;28;20053;-77
2022/12/19 04:18:11;;;;;;;47.83;31.15;;;;;;;3.83;100.00;101492.84;5028285;28;20039;-75
2022/12/19 04:20:43;;;;;;;53.13;33.08;;;;;;;3.92;100.00;101496.88;5015062;28;20382;-75
2022/12/19 04:23:19;;;;;;;49.77;31.03;;;;;;;3.93;100.00;101496.81;5014109;28;20033;-74
2022/12/19 04:25:54;;;;;;;50.17;30.67;;;;;;;3.93;100.00;101489.00;5031313;28;20052;-74
2022/12/19 04:28:41;;;;;;;50.10;29.42;;;;;;;3.97;100.00;101485.38;5031284;28;20052;-74
2022/12/19 04:31:10;;;;;;;46.25;29.15;;;;;;;4.06;100.00;101481.59;5030926;28;20045;-74
2022/12/19 04:33:35;;;;;;;48.85;30.25;;;;;;;4.17;100.00;101483.81;5031948;28;20473;-74
2022/12/19 04:36:01;;;;;;;46.88;29.15;;;;;;;4.15;100.00;101478.66;5029613;28;20067;-74
2022/12/19 04:38:27;;;;;;;40.85;28.20;;;;;;;4.20;100.00;101479.34;5029262;28;20393;-74
2022/12/19 04:40:52;;;;;;;43.55;28.70;;;;;;;4.23;100.00;101480.97;5030295;28;20030;-74
2022/12/19 04:43:17;;;;;;;42.83;27.58;;;;;;;4.24;100.00;101482.66;5030480;28;20030;-74
2022/12/19 04:45:46;;;;;;;41.22;27.73;;;;;;;4.30;100.00;101483.28;5029909;28;20025;-75
2022/12/19 04:48:11;;;;;;;41.75;28.25;;;;;;;4.38;100.00;101481.22;5031481;28;20022;-75
2022/12/19 04:50:37;;;;;;;42.35;28.33;;;;;;;4.41;100.00;101480.28;5030740;28;20048;-76
2022/12/19 04:53:05;;;;;;;40.50;27.95;;;;;;;4.45;100.00;101481.03;5027908;28;21491;-74
2022/12/19 04:55:31;;;;;;;43.15;28.20;;;;;;;4.45;100.00;101475.81;5031334;28;20040;-74
2022/12/19 04:57:57;;;;;;;41.70;27.90;;;;;;;4.50;100.00;101479.09;5032588;28;20378;-74
2022/12/19 05:00:23;;;;;;;43.88;27.55;;;;;;;4.50;100.00;101484.31;5030157;28;20040;-74
2022/12/19 05:02:48;;;;;;;38.53;26.77;;;;;;;4.52;100.00;101478.13;5014267;28;20021;-75
2022/12/19 05:05:14;;;;;;;39.03;26.23;;;;;;;4.57;100.00;101480.53;5031268;28;20029;-74
2022/12/19 05:07:39;;;;;;;36.00;25.90;;;;;;;4.60;100.00;101475.22;5006671;28;20034;-74
2022/12/19 05:10:06;;;;;;;37.58;25.85;;;;;;;4.64;100.00;101480.25;5027706;28;20057;-74
2022/12/19 05:12:32;;;;;;;38.47;26.30;;;;;;;4.67;100.00;101466.25;5025219;28;20513;-75
2022/12/19 05:14:58;;;;;;;35.90;25.27;;;;;;;4.70;100.00;101476.53;5030567;28;20038;-74
2022/12/19 05:17:24;;;;;;;36.40;25.23;;;;;;;4.71;100.00;101467.81;5012499;28;20025;-75
2022/12/19 05:19:49;;;;;;;33.95;24.73;;;;;;;4.78;100.00;101461.44;5029933;28;20091;-74
2022/12/19 05:22:15;;;;;;;37.97;25.40;;;;;;;4.80;100.00;101466.59;5011858;28;20018;-74
2022/12/19 05:24:40;;;;;;;34.30;25.02;;;;;;;4.85;100.00;101469.88;5026803;28;20482;-74
2022/12/19 05:27:06;;;;;;;35.47;24.83;;;;;;;4.84;100.00;101471.66;5029189;28;20025;-74
2022/12/19 05:29:32;;;;;;;33.15;23.95;;;;;;;4.88;100.00;101465.41;5022662;28;20278;-74
2022/12/19 05:31:59;;;;;;;32.88;24.05;;;;;;;4.87;100.00;101462.84;5030623;28;20025;-75
2022/12/19 05:34:25;;;;;;;32.13;23.50;;;;;;;4.90;100.00;101463.56;5011880;28;20953;-75
2022/12/19 05:36:50;;;;;;;38.08;24.67;;;;;;;4.96;100.00;101460.72;5029371;28;20096;-74
2022/12/19 05:39:15;;;;;;;32.83;23.08;;;;;;;4.95;100.00;101459.03;5030369;28;20021;-74
2022/12/19 05:41:41;;;;;;;28.85;22.45;;;;;;;5.02;100.00;101463.06;5029604;28;20053;-75
2022/12/19 05:44:08;;;;;;;31.02;22.58;;;;;;;5.04;100.00;101471.66;5029245;28;20021;-75
2022/12/19 05:46:33;;;;;;;29.73;22.38;;;;;;;5.04;100.00;101460.41;4993656;28;20414;-75
2022/12/19 05:48:58;;;;;;;29.58;21.20;;;;;;;5.06;100.00;101462.94;5018767;28;20029;-74
2022/12/19 05:51:24;;;;;;;28.92;21.42;;;;;;;5.08;100.00;101466.31;5029316;28;20118;-74
2022/12/19 05:53:50;;;;;;;28.52;20.67;;;;;;;5.12;100.00;101463.53;5030310;28;20029;-75
2022/12/19 05:56:21;;;;;;;28.65;21.50;;;;;;;5.18;100.00;101473.69;5029096;28;20029;-74
2022/12/19 05:58:47;;;;;;;26.60;20.25;;;;;;;5.20;100.00;101471.91;5012576;28;20489;-75
2022/12/19 06:01:17;;;;;;;24.98;19.80;;;;;;;5.23;100.00;101470.94;5025404;28;20029;-75
2022/12/19 06:03:43;;;;;;;24.45;19.63;;;;;;;5.25;100.00;101474.31;5025876;28;20033;-75
2022/12/19 06:06:11;;;;;;;23.02;18.83;;;;;;;5.26;100.00;101470.81;5028876;28;20064;-75
2022/12/19 06:08:37;;;;;;;27.52;19.00;;;;;;;5.25;100.00;101459.53;5030766;28;20488;-75
2022/12/19 06:11:05;;;;;;;23.50;18.42;;;;;;;5.26;100.00;101460.38;5029561;28;20031;-75
2022/12/19 06:13:30;;;;;;;25.75;20.27;;;;;;;5.29;100.00;101461.09;5030630;28;20171;-75
2022/12/19 06:16:00;;;;;;;24.95;18.75;;;;;;;5.34;100.00;101458.28;5029501;28;20495;-75
2022/12/19 06:18:27;;;;;;;25.55;18.80;;;;;;;5.38;100.00;101464.22;5028642;28;20033;-75
2022/12/19 06:21:04;;;;;;;20.77;17.35;;;;;;;5.39;100.00;101468.50;5013311;28;20067;-75
2022/12/19 06:23:31;;;;;;;22.10;17.58;;;;;;;5.41;100.00;101470.13;5028035;28;20095;-75
2022/12/19 06:25:59;;;;;;;21.67;17.25;;;;;;;5.45;100.00;101463.03;5030260;28;20025;-75
2022/12/19 06:28:26;;;;;;;22.33;17.75;;;;;;;5.43;100.00;101468.31;5012260;28;20029;-75
2022/12/19 06:30:54;;;;;;;19.38;17.17;;;;;;;5.51;100.00;101461.00;5029480;28;20041;-75
2022/12/19 06:33:20;;;;;;;23.85;17.77;;;;;;;5.55;100.00;101462.56;5011432;28;20033;-75
2022/12/19 06:35:45;;;;;;;20.67;17.30;;;;;;;5.57;100.00;101476.38;5019271;28;20041;-75
2022/12/19 06:38:11;;;;;;;20.70;17.67;;;;;;;5.59;100.00;101471.94;5011349;28;20113;-76
2022/12/19 06:43:27;;;;;;;19.55;16.77;;;;;;;5.62;100.00;101486.66;5029625;28;20067;-76
2022/12/19 06:45:55;;;;;;;19.08;16.85;;;;;;;5.61;100.00;101485.81;5011424;28;20108;-76
2022/12/19 06:48:21;;;;;;;19.10;16.77;;;;;;;5.64;100.00;101477.00;5010656;28;20064;-75
2022/12/19 06:50:47;;;;;;;19.88;17.35;;;;;;;5.65;100.00;101478.69;5027530;28;20108;-76
2022/12/19 06:53:12;;;;;;;22.63;18.25;;;;;;;5.65;100.00;101484.75;5006877;28;20121;-76
2022/12/19 06:55:38;;;;;;;20.50;16.85;;;;;;;5.66;100.00;101486.47;5029564;28;20402;-75
2022/12/19 06:58:03;;;;;;;22.17;17.60;;;;;;;5.68;100.00;101477.72;5012369;28;20455;-76
2022/12/19 07:00:29;;;;;;;21.00;17.00;;;;;;;5.66;100.00;101475.16;5028515;28;20030;-76
2022/12/19 07:02:58;;;;;;;19.63;16.35;;;;;;;5.65;100.00;101484.75;5029304;28;20076;-75
2022/12/19 07:05:24;;;;;;;21.10;17.50;;;;;;;5.72;100.00;101489.72;5029875;28;20401;-76
2022/12/19 07:07:50;;;;;;;19.48;17.13;;;;;;;5.70;100.00;101484.56;5026312;28;20132;-76
2022/12/19 07:10:15;;;;;;;18.90;16.15;;;;;;;5.74;100.00;101477.44;5013777;28;20026;-76
2022/12/19 07:12:41;;;;;;;21.05;16.95;;;;;;;5.75;100.00;101479.13;5011836;28;20480;-76
2022/12/19 07:15:07;;;;;;;20.67;16.65;;;;;;;5.74;100.00;101477.44;5011069;28;20091;-76
2022/12/19 07:17:32;;;;;;;19.13;16.65;;;;;;;5.74;100.00;101478.28;5029223;28;20068;-76
2022/12/19 07:19:58;;;;;;;20.13;16.73;;;;;;;5.75;100.00;101479.13;5029706;28;20474;-76
2022/12/19 07:22:28;;;;;;;19.23;16.40;;;;;;;5.75;100.00;101481.75;5029407;28;20025;-78
2022/12/19 07:24:54;;;;;;;19.33;16.20;;;;;;;5.76;100.00;101481.69;5028574;28;20030;-78
2022/12/19 07:27:21;;;;;;;19.98;16.60;;;;;;;5.79;100.00;101478.94;5010613;28;20021;-76
2022/12/19 07:29:47;;;;;;;20.80;16.17;;;;;;;5.80;100.00;101479.78;5027641;28;20098;-76
2022/12/19 07:32:13;;;;;;;19.80;15.98;;;;;;;5.80;100.00;101482.41;5027274;28;20484;-80
2022/12/19 07:34:39;;;;;;;20.38;15.60;;;;;;;5.79;100.00;101489.38;5028097;28;20049;-76
2022/12/19 07:37:10;;;;;;;17.17;14.93;;;;;;;5.85;100.00;101480.41;5029715;28;20045;-77
2022/12/19 07:39:35;;;;;;;17.40;15.07;;;;;;;5.85;100.00;101475.19;5011118;28;20453;-77
2022/12/19 07:42:01;;;;;;;16.55;14.75;;;;;;;5.88;100.00;101482.91;5008372;28;20059;-77
2022/12/19 07:44:26;;;;;;;17.02;13.75;;;;;;;5.83;100.00;101477.03;5025111;28;20112;-77
2022/12/19 07:46:51;;;;;;;15.80;14.10;;;;;;;5.89;100.00;101476.75;5028434;28;20029;-77
2022/12/19 07:49:17;;;;;;;17.25;13.63;;;;;;;5.90;100.00;101483.72;5010248;28;20385;-77
2022/12/19 07:51:42;;;;;;;15.15;13.55;;;;;;;5.90;100.00;101479.34;5031680;28;20470;-78
2022/12/19 07:54:07;;;;;;;15.02;12.93;;;;;;;5.92;100.00;101492.31;5032641;28;20099;-77
2022/12/19 07:56:33;;;;;;;16.10;12.90;;;;;;;5.94;100.00;101487.88;5031223;28;20540;-77
2022/12/19 07:59:05;;;;;;;14.25;12.63;;;;;;;5.98;100.00;101497.25;5013163;28;20041;-77
2022/12/19 08:01:33;;;;;;;14.13;12.57;;;;;;;5.99;100.00;101488.50;5005607;28;20110;-77
2022/12/19 08:03:59;;;;;;;14.75;12.75;;;;;;;6.02;100.00;101498.00;5013630;28;20028;-78
2022/12/19 08:06:25;;;;;;;15.50;12.95;;;;;;;6.02;100.00;101504.06;5031821;28;20474;-78
2022/12/19 08:08:50;;;;;;;15.30;12.68;;;;;;;6.05;100.00;101500.47;5031187;28;20044;-77
2022/12/19 08:11:36;;;;;;;15.80;11.95;;;;;;;6.09;100.00;101509.88;5031707;28;20022;-77
2022/12/19 08:14:05;;;;;;;15.60;11.77;;;;;;;6.11;100.00;101514.13;5017263;28;20571;-78
2022/12/19 08:16:30;;;;;;;13.70;11.60;;;;;;;6.08;100.00;101514.25;5024713;28;20120;-79
2022/12/19 08:18:56;;;;;;;13.90;10.75;;;;;;;6.11;100.00;101511.50;5012193;28;20048;-79
2022/12/19 08:21:22;;;;;;;12.95;10.68;;;;;;;6.12;100.00;101505.34;5025014;28;20977;-79
2022/12/19 08:23:48;;;;;;;19.27;10.73;;;;;;;6.15;100.00;101505.22;5028177;28;20033;-79
2022/12/19 08:26:18;;;;;;;13.93;11.20;;;;;;;6.19;100.00;101500.69;5012538;28;20040;-79
2022/12/19 08:28:46;;;;;;;14.50;11.35;;;;;;;6.19;100.00;101512.00;5012704;28;20136;-77
2022/12/19 08:31:14;;;;;;;13.15;11.45;;;;;;;6.22;100.00;101511.84;5012933;28;20522;-78
2022/12/19 08:33:48;;;;;;;14.13;11.02;;;;;;;6.23;100.00;101505.72;5031296;28;20599;-78
2022/12/19 08:36:26;;;;;;;12.02;9.98;;;;;;;6.23;100.00;101513.56;5013689;28;20052;-80
2022/12/19 08:38:51;;;;;;;15.20;10.88;;;;;;;6.25;100.00;101511.72;5014034;28;20025;-77
2022/12/19 08:41:20;;;;;;;11.52;10.13;;;;;;;6.29;100.00;101522.88;5014301;28;20029;-77
2022/12/19 08:43:50;;;;;;;14.40;10.27;;;;;;;6.32;100.00;101527.13;5031178;28;20029;-77
2022/12/19 08:46:20;;;;;;;11.25;10.05;;;;;;;6.33;100.00;101518.34;5031396;28;20374;-78
2022/12/19 08:48:45;;;;;;;11.40;9.77;;;;;;;6.36;100.00;101523.44;5032190;28;20561;-78
2022/12/19 08:51:12;;;;;;;11.23;9.52;;;;;;;6.37;100.00;101517.28;5031688;28;20033;-78
2022/12/19 08:53:40;;;;;;;12.68;9.82;;;;;;;6.40;100.00;101520.63;5031861;28;20071;-78
2022/12/19 08:56:11;;;;;;;11.63;8.93;;;;;;;6.43;100.00;101517.03;5032046;28;20060;-78
2022/12/19 08:58:37;;;;;;;13.25;9.60;;;;;;;6.49;100.00;101519.38;5031559;28;20029;-78
2022/12/19 09:01:07;;;;;;;16.65;9.68;;;;;;;6.50;100.00;101518.44;5031450;28;20104;-78
2022/12/19 09:03:34;;;;;;;9.90;8.90;;;;;;;6.51;100.00;101512.31;5031355;28;20029;-78
2022/12/19 09:06:02;;;;;;;10.30;8.80;;;;;;;6.53;100.00;101520.91;5013827;28;20021;-78
2022/12/19 09:08:28;;;;;;;10.40;8.32;;;;;;;6.55;100.00;101519.06;5013686;28;20031;-78
2022/12/19 09:11:20;;;;;;;10.45;8.23;;;;;;;6.59;100.00;101524.09;5012432;28;20032;-78
2022/12/19 09:13:47;;;;;;;9.23;7.97;;;;;;;6.62;100.00;101530.94;5025895;28;20041;-81
2022/12/19 09:16:21;;;;;;;11.23;8.45;;;;;;;6.64;100.00;101529.09;5008482;28;20048;-77
2022/12/19 09:18:50;;;;;;;10.90;7.72;;;;;;;6.65;100.00;101545.63;4995949;28;20046;-78
2022/12/19 09:21:20;;;;;;;8.80;7.90;;;;;;;6.66;100.00;101540.34;5024676;28;20021;-79
2022/12/19 09:23:53;;;;;;;10.20;7.93;;;;;;;6.67;100.00;101535.97;5030892;28;20026;-79
2022/12/19 09:26:23;;;;;;;11.65;8.68;;;;;;;6.68;100.00;101530.66;5027531;28;20029;-78
2022/12/19 09:28:52;;;;;;;11.35;8.43;;;;;;;6.73;100.00;101533.91;5030284;28;20554;-79
2022/12/19 09:31:23;;;;;;;9.63;8.13;;;;;;;6.74;100.00;101538.19;5029111;28;20053;-79
2022/12/19 09:33:52;;;;;;;9.93;7.68;;;;;;;6.75;100.00;101529.44;5029457;28;20060;-78
2022/12/19 09:36:21;;;;;;;10.13;8.18;;;;;;;6.79;100.00;101531.00;5029290;28;20025;-79
2022/12/19 09:38:47;;;;;;;9.68;7.90;;;;;;;6.81;100.00;101537.03;5031221;28;20045;-79
2022/12/19 09:41:30;;;;;;;9.25;7.60;;;;;;;6.86;100.00;101540.28;5029653;28;20150;-78
2022/12/19 09:44:31;;;;;;;9.50;8.05;;;;;;;6.90;100.00;101539.19;5013565;28;20076;-77
2022/12/19 09:47:09;;;;;;;9.48;8.20;;;;;;;6.91;100.00;101537.44;5029680;28;20029;-78
2022/12/19 09:49:44;;;;;;;11.82;8.23;;;;;;;6.95;100.00;101536.34;5030107;28;20028;-77
2022/12/19 09:52:20;;;;;;;9.52;7.63;;;;;;;6.99;100.00;101540.53;5031487;28;20092;-77
2022/12/19 09:54:52;;;;;;;8.95;7.55;;;;;;;7.07;100.00;101532.28;5029839;28;20413;-77
2022/12/19 09:57:33;;;;;;;9.10;7.55;;;;;;;7.14;100.00;101534.53;5029321;28;20021;-78
2022/12/19 10:00:21;;;;;;;9.70;7.25;;;;;;;7.18;100.00;101535.22;5010186;28;20100;-78
2022/12/19 10:02:56;;;;;;;10.48;7.80;;;;;;;7.22;100.00;101544.66;5011599;28;20072;-79
2022/12/19 10:05:47;;;;;;;8.10;7.28;;;;;;;7.30;100.00;101545.13;4992912;28;20532;-78
2022/12/19 10:08:20;;;;;;;9.65;7.38;;;;;;;7.28;100.00;101549.59;5020832;28;20061;-78
2022/12/19 10:10:54;;;;;;;9.73;7.43;;;;;;;7.32;100.00;101543.28;4995195;28;20032;-77
2022/12/19 10:13:39;;;;;;;10.30;6.65;;;;;;;7.32;100.00;101538.03;5008858;28;20478;-78
2022/12/19 10:16:15;;;;;;;8.65;6.95;;;;;;;7.34;100.00;101536.19;5027606;28;20032;-78
2022/12/19 10:18:49;;;;;;;14.05;6.93;;;;;;;7.37;100.00;101541.28;5030127;28;20029;-78
2022/12/19 10:21:31;;;;;;;8.48;6.82;;;;;;;7.41;100.00;101542.81;5028275;28;20375;-79
2022/12/19 10:24:23;;;;;;;9.57;7.13;;;;;;;7.41;100.00;101534.97;5028148;28;20076;-78
2022/12/19 10:26:57;;;;;;;8.05;6.50;;;;;;;7.42;100.00;101538.44;4965421;28;20047;-79
2022/12/19 10:29:50;;;;;;;7.97;6.72;;;;;;;7.44;100.00;101540.03;5029589;28;20056;-78
2022/12/19 10:32:30;;;;;;;8.00;6.75;;;;;;;7.43;100.00;101548.81;4990669;28;20078;-78
2022/12/19 10:34:56;;;;;;;8.55;6.60;;;;;;;7.44;100.00;101552.28;4982083;28;20032;-78
2022/12/19 10:37:35;;;;;;;8.50;6.22;;;;;;;7.43;100.00;101546.19;4987987;28;20030;-78
2022/12/19 10:40:22;;;;;;;9.05;6.75;;;;;;;7.43;100.00;101548.81;4990698;28;20397;-78
2022/12/19 10:42:53;;;;;;;9.52;6.10;;;;;;;7.42;100.00;101549.75;4989410;28;20033;-78
2022/12/19 10:45:37;;;;;;;8.88;6.85;;;;;;;7.45;100.00;101546.97;4988390;28;20034;-78
2022/12/19 10:48:03;;;;;;;7.10;5.70;;;;;;;7.43;100.00;101551.44;4987801;28;20034;-77
2022/12/19 10:50:29;;;;;;;9.73;6.43;;;;;;;7.45;100.00;101546.13;4988461;28;20030;-80
2022/12/19 10:53:04;;;;;;;8.60;6.57;;;;;;;7.42;100.00;101547.13;4990108;28;20041;-80
2022/12/19 10:55:36;;;;;;;8.90;6.32;;;;;;;7.42;100.00;101544.50;4990467;28;20065;-78
2022/12/19 10:58:24;;;;;;;8.15;6.35;;;;;;;7.43;100.00;101537.50;4986131;28;20125;-78
2022/12/19 11:01:11;;;;;;;7.00;6.22;;;;;;;7.42;100.00;101541.91;4988946;28;20030;-80
2022/12/19 11:03:40;;;;;;;7.75;6.63;;;;;;;7.36;100.00;101531.72;4990147;28;20538;-78
2022/12/19 11:06:44;;;;;;;7.93;6.30;;;;;;;7.38;100.00;101531.66;4988650;28;20031;-78
2022/12/19 11:09:29;;;;;;;6.47;5.78;;;;;;;7.35;100.00;101529.19;4988701;28;20483;-78
2022/12/19 11:12:00;;;;;;;8.02;6.40;;;;;;;7.32;100.00;101527.56;4990088;28;20092;-78
2022/12/19 11:14:29;;;;;;;8.43;6.85;;;;;;;7.32;100.00;101538.03;4990045;28;20383;-78
2022/12/19 11:16:54;;;;;;;8.40;6.18;;;;;;;7.31;100.00;101520.66;4988329;28;20025;-78
2022/12/19 11:19:32;;;;;;;8.70;6.60;;;;;;;7.33;100.00;101513.56;4989502;28;20483;-79
2022/12/19 11:22:30;;;;;;;7.05;6.15;;;;;;;7.33;100.00;101505.72;4990766;28;20037;-78
2022/12/19 11:24:57;;;;;;;7.03;6.20;;;;;;;7.33;100.00;101505.72;4986998;28;20034;-79
2022/12/19 11:27:32;;;;;;;8.30;6.15;;;;;;;7.38;100.00;101510.72;4991763;28;20294;-79
2022/12/19 11:29:59;;;;;;;8.35;6.15;;;;;;;7.34;100.00;101509.16;5001021;28;20092;-77
2022/12/19 11:32:35;;;;;;;6.82;5.95;;;;;;;7.40;100.00;101508.84;5032431;28;20028;-78
2022/12/19 11:35:13;;;;;;;7.30;6.10;;;;;;;7.44;100.00;101495.53;5014886;28;20040;-78